Time;durP1;ratioP1;P1;durP2;ratioP2;P2;SDS_P1;SDS_P2;PMS_P1;PMS_P2;Temp;Humidity;BMP_temperature;BMP_pressure;BME280_temperature;BME280_humidity;BME280_pressure;Samples;Min_cycle;Max_cycle;Signal;HPM_P1;HPM_P2
2022/05/04 00:01:56;;;;;;;9.35;5.70;;;;;;;11.84;90.03;100338.66;4470205;32;20509;-66
2022/05/04 00:04:23;;;;;;;9.63;6.20;;;;;;;11.76;91.25;100340.50;4470299;32;20095;-66
2022/05/04 00:06:51;;;;;;;6.87;5.57;;;;;;;11.81;93.54;100343.94;4470212;32;20118;-66
2022/05/04 00:09:18;;;;;;;6.68;5.37;;;;;;;11.79;92.81;100344.88;4470179;32;20119;-66
2022/05/04 00:11:46;;;;;;;9.18;7.37;;;;;;;11.76;92.15;100342.28;4470302;32;20168;-66
2022/05/04 00:14:13;;;;;;;11.43;7.55;;;;;;;11.73;92.04;100341.44;4470161;32;20473;-66
2022/05/04 00:16:40;;;;;;;15.75;7.97;;;;;;;11.63;92.39;100349.56;4470228;32;20443;-66
2022/05/04 00:19:07;;;;;;;9.25;7.65;;;;;;;11.62;92.89;100353.94;4469891;32;20163;-66
2022/05/04 00:21:34;;;;;;;12.27;7.50;;;;;;;11.62;95.68;100347.78;4468766;32;20084;-66
2022/05/04 00:24:01;;;;;;;11.63;7.45;;;;;;;11.60;95.69;100344.31;4470140;32;20123;-66
2022/05/04 00:26:29;;;;;;;12.77;7.22;;;;;;;11.57;93.80;100342.59;4470189;32;20524;-67
2022/05/04 00:28:56;;;;;;;12.05;6.55;;;;;;;11.51;93.68;100360.28;4470244;32;20119;-66
2022/05/04 00:31:23;;;;;;;8.00;6.93;;;;;;;11.75;91.48;100348.47;4469968;32;20100;-66
2022/05/04 00:33:50;;;;;;;12.02;7.12;;;;;;;11.54;91.67;100350.56;4470143;32;20452;-66
2022/05/04 00:36:18;;;;;;;10.73;6.85;;;;;;;11.31;94.59;100350.03;4470041;32;20092;-66
2022/05/04 00:38:45;;;;;;;10.32;6.57;;;;;;;11.24;93.63;100352.78;4470088;32;20449;-66
2022/05/04 00:41:12;;;;;;;9.48;7.32;;;;;;;11.15;93.63;100355.56;4469900;32;20134;-67
2022/05/04 00:43:39;;;;;;;9.40;6.68;;;;;;;10.99;97.64;100354.91;4469916;32;20551;-66
2022/05/04 00:46:06;;;;;;;8.93;6.32;;;;;;;10.91;99.12;100353.25;4469948;32;20122;-66
2022/05/04 00:48:34;;;;;;;11.30;7.00;;;;;;;10.87;98.91;100355.06;4469909;32;20084;-66
2022/05/04 00:51:01;;;;;;;7.55;6.25;;;;;;;10.83;99.79;100360.41;4469959;32;20127;-66
2022/05/04 00:53:28;;;;;;;8.45;6.12;;;;;;;10.87;98.27;100355.06;4469836;32;20095;-66
2022/05/04 00:55:59;;;;;;;8.57;6.07;;;;;;;10.85;98.04;100351.59;4469799;32;20465;-66
2022/05/04 01:01:14;;;;;;;8.50;6.10;;;;;;;10.83;98.69;100349.88;4469874;32;20191;-66
2022/05/04 01:03:41;;;;;;;12.35;6.93;;;;;;;10.93;96.37;100351.50;4469745;32;20138;-66
2022/05/04 01:06:08;;;;;;;8.95;5.97;;;;;;;10.89;96.23;100345.41;4469733;32;20143;-66
2022/05/04 01:08:35;;;;;;;7.70;6.85;;;;;;;10.87;97.73;100333.13;4469868;32;20092;-66
2022/05/04 01:11:02;;;;;;;9.65;6.03;;;;;;;10.77;100.00;100345.53;4469718;32;20130;-66
2022/05/04 01:13:31;;;;;;;13.10;6.87;;;;;;;10.89;98.20;100355.06;4469642;32;20469;-66
2022/05/04 01:15:58;;;;;;;10.10;7.45;;;;;;;10.85;98.79;100348.97;4469616;32;20106;-66
2022/05/04 01:18:25;;;;;;;9.15;5.93;;;;;;;10.84;99.74;100349.84;4469698;32;20075;-66
2022/05/04 01:20:52;;;;;;;8.30;5.95;;;;;;;10.89;98.02;100345.41;4455316;32;20101;-66
2022/05/04 01:23:20;;;;;;;9.05;6.57;;;;;;;10.77;98.83;100343.78;4469556;32;20112;-66
2022/05/04 01:25:47;;;;;;;10.55;6.30;;;;;;;10.71;98.83;100343.00;4469577;32;20118;-66
2022/05/04 01:28:14;;;;;;;8.95;5.62;;;;;;;10.57;99.83;100343.19;4469493;32;20738;-66
2022/05/04 01:30:42;;;;;;;8.85;5.15;;;;;;;10.61;98.50;100342.25;4469438;32;20123;-66
2022/05/04 01:33:09;;;;;;;8.57;5.80;;;;;;;10.74;95.55;100342.94;4469116;32;20109;-66
2022/05/04 01:35:36;;;;;;;13.98;6.03;;;;;;;10.60;98.18;100343.16;4469616;32;20088;-66
2022/05/04 01:38:04;;;;;;;11.50;5.10;;;;;;;10.53;98.86;100342.34;4469273;32;20458;-66
2022/05/04 01:40:31;;;;;;;8.50;5.55;;;;;;;10.63;96.06;100347.50;4469275;32;20120;-66
2022/05/04 01:42:59;;;;;;;10.55;5.90;;;;;;;10.69;94.13;100348.28;4469287;32;20452;-66
2022/05/04 01:45:26;;;;;;;6.47;5.72;;;;;;;10.58;96.12;100350.19;4469517;32;20087;-66
2022/05/04 01:47:53;;;;;;;6.97;5.72;;;;;;;10.51;98.24;100359.06;4454435;32;20448;-66
2022/05/04 01:50:21;;;;;;;8.40;6.65;;;;;;;10.56;98.52;100349.31;4469076;32;20523;-66
2022/05/04 01:52:48;;;;;;;8.95;5.80;;;;;;;10.62;96.93;100353.66;4469050;32;20156;-66
2022/05/04 01:55:17;;;;;;;7.72;5.62;;;;;;;10.49;97.73;100347.66;4469302;32;20160;-66
2022/05/04 01:57:44;;;;;;;8.23;6.43;;;;;;;10.40;97.74;100350.41;4468921;32;20486;-66
2022/05/04 02:00:12;;;;;;;8.00;6.30;;;;;;;10.26;98.26;100351.44;4468995;32;20119;-66
2022/05/04 02:02:41;;;;;;;9.20;6.78;;;;;;;10.29;96.43;100347.91;4468980;32;20467;-66
2022/05/04 02:05:09;;;;;;;11.52;7.20;;;;;;;10.19;98.23;100356.75;4468878;32;20147;-66
2022/05/04 02:07:37;;;;;;;7.70;6.68;;;;;;;10.00;100.00;100351.69;4468964;32;20456;-66
2022/05/04 02:10:05;;;;;;;8.68;6.43;;;;;;;9.94;100.00;100350.88;4469060;32;20124;-66
2022/05/04 02:12:34;;;;;;;9.38;6.57;;;;;;;9.96;99.64;100343.81;4468796;32;20177;-66
2022/05/04 02:15:03;;;;;;;10.52;6.93;;;;;;;9.84;100.00;100350.09;4468900;32;20095;-66
2022/05/04 02:17:31;;;;;;;12.63;7.55;;;;;;;9.73;100.00;100344.91;4468755;32;20153;-66
2022/05/04 02:19:58;;;;;;;9.13;7.18;;;;;;;9.69;100.00;100337.09;4469018;32;20218;-66
2022/05/04 02:22:25;;;;;;;17.42;7.78;;;;;;;9.63;100.00;100338.00;4468719;32;20133;-66
2022/05/04 02:24:53;;;;;;;8.23;6.22;;;;;;;9.78;100.00;100347.50;4468573;32;20103;-66
2022/05/04 02:27:20;;;;;;;9.95;7.07;;;;;;;9.98;100.00;100339.44;4468574;32;20539;-66
2022/05/04 02:29:48;;;;;;;10.70;6.82;;;;;;;9.94;100.00;100342.97;4468539;32;20127;-66
2022/05/04 02:32:15;;;;;;;10.15;6.93;;;;;;;9.80;100.00;100338.72;4468550;32;20100;-66
2022/05/04 02:40:15;;;;;;;8.98;7.40;;;;;;;9.53;100.00;100345.09;4468451;32;20119;-66
2022/05/04 02:42:42;;;;;;;8.25;6.35;;;;;;;9.52;100.00;100359.13;4468420;32;20127;-66
2022/05/04 02:45:10;;;;;;;9.32;6.82;;;;;;;9.55;100.00;100352.97;4469374;32;20431;-66
2022/05/04 02:47:39;;;;;;;7.82;6.22;;;;;;;9.49;100.00;100368.81;4470696;32;20184;-66
2022/05/04 02:50:13;;;;;;;9.10;6.82;;;;;;;9.57;100.00;100354.69;4470982;32;20123;-66
2022/05/04 02:52:40;;;;;;;11.73;6.57;;;;;;;9.46;100.00;100364.44;4470701;32;20152;-66
2022/05/04 02:55:07;;;;;;;8.25;6.60;;;;;;;9.33;100.00;100368.94;4470724;32;20435;-66
2022/05/04 02:57:34;;;;;;;14.95;7.97;;;;;;;9.42;100.00;100362.72;4470702;32;20156;-66
2022/05/04 03:00:03;;;;;;;8.63;7.32;;;;;;;9.41;100.00;100362.75;4470544;32;20150;-66
2022/05/04 03:02:30;;;;;;;13.45;7.55;;;;;;;9.30;100.00;100361.06;4470847;32;20572;-66
2022/05/04 03:04:59;;;;;;;10.07;6.43;;;;;;;9.22;100.00;100361.97;4470663;32;20123;-66
2022/05/04 03:07:27;;;;;;;9.05;6.45;;;;;;;9.39;100.00;100367.13;4470647;32;20103;-66
2022/05/04 03:09:55;;;;;;;8.65;6.07;;;;;;;9.55;100.00;100366.13;4470610;32;20108;-66
2022/05/04 03:12:22;;;;;;;12.23;6.47;;;;;;;9.57;100.00;100367.84;4470586;32;20127;-66
2022/05/04 03:14:50;;;;;;;13.25;7.20;;;;;;;9.63;99.34;100372.19;4470832;32;20499;-66
2022/05/04 03:17:18;;;;;;;9.02;7.20;;;;;;;9.58;100.00;100361.72;4470542;32;20516;-66
2022/05/04 03:19:47;;;;;;;9.90;7.60;;;;;;;9.43;100.00;100368.84;4470302;32;20100;-66
2022/05/04 03:22:15;;;;;;;8.75;7.20;;;;;;;9.27;100.00;100366.34;4470570;32;20546;-66
2022/05/04 03:24:43;;;;;;;16.50;7.40;;;;;;;9.26;100.00;100366.34;4470575;32;20160;-66
2022/05/04 03:27:10;;;;;;;12.95;9.07;;;;;;;9.22;100.00;100364.59;4470413;32;20096;-66
2022/05/04 03:29:37;;;;;;;18.95;7.82;;;;;;;9.27;100.00;100366.34;4470386;32;20093;-66
2022/05/04 03:32:05;;;;;;;10.48;7.60;;;;;;;9.39;100.00;100372.37;4470694;32;20100;-66
2022/05/04 03:34:32;;;;;;;11.70;8.80;;;;;;;9.40;100.00;100374.12;4470464;32;20088;-66
2022/05/04 03:37:00;;;;;;;13.13;8.60;;;;;;;9.28;100.00;100381.22;4470367;32;20116;-66
2022/05/04 03:39:27;;;;;;;11.10;8.82;;;;;;;9.18;100.00;100386.53;4470587;32;20151;-66
2022/05/04 03:41:56;;;;;;;13.25;8.85;;;;;;;9.12;100.00;100387.47;4470300;32;20437;-66
2022/05/04 03:44:23;;;;;;;10.30;9.07;;;;;;;9.21;100.00;100379.50;4470299;32;20104;-66
2022/05/04 03:46:52;;;;;;;10.52;9.43;;;;;;;9.26;100.00;100380.38;4470200;32;20142;-66
2022/05/04 03:49:21;;;;;;;11.73;10.05;;;;;;;9.27;100.00;100389.13;4470254;32;20119;-66
2022/05/04 03:51:48;;;;;;;12.85;10.05;;;;;;;9.34;100.00;100377.69;4470709;32;20548;-66
2022/05/04 03:54:15;;;;;;;15.02;10.98;;;;;;;9.29;100.00;100376.81;4471227;32;20376;-68
2022/05/04 03:56:43;;;;;;;14.93;9.48;;;;;;;9.32;100.00;100382.94;4470508;32;20131;-68
2022/05/04 03:59:10;;;;;;;23.77;10.18;;;;;;;9.47;100.00;100384.59;4470896;32;20093;-68
2022/05/04 04:01:38;;;;;;;10.93;9.43;;;;;;;9.55;100.00;100388.03;4470256;32;20157;-68
2022/05/04 04:04:06;;;;;;;14.68;10.20;;;;;;;9.55;100.00;100393.31;4470366;32;20080;-68
2022/05/04 04:06:33;;;;;;;12.40;9.65;;;;;;;9.62;100.00;100395.91;4470231;32;20414;-68
2022/05/04 04:09:01;;;;;;;12.93;9.73;;;;;;;9.66;100.00;100392.34;4470267;32;20184;-68
2022/05/04 04:11:29;;;;;;;14.20;10.30;;;;;;;9.79;100.00;100392.25;4470100;32;20377;-68
2022/05/04 04:13:57;;;;;;;14.85;9.88;;;;;;;9.90;100.00;100396.53;4470141;32;20095;-68
2022/05/04 04:16:25;;;;;;;14.15;10.40;;;;;;;9.91;100.00;100390.38;4469918;32;20092;-68
2022/05/04 04:18:53;;;;;;;15.43;11.00;;;;;;;9.92;100.00;100392.13;4470588;32;20740;-68
2022/05/04 04:24:06;;;;;;;15.07;9.48;;;;;;;10.00;100.00;100406.06;4470859;32;20106;-68
2022/05/04 04:26:36;;;;;;;17.00;10.80;;;;;;;10.11;100.00;100406.00;4470078;32;20160;-68
2022/05/04 04:29:03;;;;;;;16.60;10.48;;;;;;;10.14;100.00;100406.84;4469913;32;20195;-68
2022/05/04 04:31:30;;;;;;;15.45;10.23;;;;;;;10.15;100.00;100405.94;4470155;32;20412;-68
2022/05/04 04:33:58;;;;;;;12.52;8.85;;;;;;;10.12;100.00;100407.75;4470139;32;20091;-68
2022/05/04 04:36:25;;;;;;;13.05;10.05;;;;;;;10.13;100.00;100415.59;4469983;32;20087;-68
2022/05/04 04:38:53;;;;;;;20.05;9.90;;;;;;;10.15;100.00;100411.22;4469748;32;20198;-68
2022/05/04 04:41:20;;;;;;;11.75;9.45;;;;;;;10.24;100.00;100412.88;4470015;32;20101;-68
2022/05/04 04:43:47;;;;;;;11.70;9.25;;;;;;;10.33;100.00;100417.22;4469950;32;20427;-68
2022/05/04 04:46:14;;;;;;;12.88;9.52;;;;;;;10.39;100.00;100415.41;4469910;32;20448;-68
2022/05/04 04:48:42;;;;;;;10.20;9.13;;;;;;;10.48;100.00;100420.53;4469897;32;20092;-68
2022/05/04 04:51:09;;;;;;;16.75;10.02;;;;;;;10.61;100.00;100418.66;4469836;32;20608;-68
2022/05/04 04:53:38;;;;;;;15.65;10.25;;;;;;;10.73;99.18;100425.53;4469832;32;20171;-68
2022/05/04 04:56:06;;;;;;;16.30;10.52;;;;;;;10.84;100.00;100426.28;4469967;32;20125;-68
2022/05/04 04:58:33;;;;;;;20.88;11.75;;;;;;;10.89;100.00;100421.84;4469761;32;20097;-68
2022/05/04 05:01:01;;;;;;;20.77;11.57;;;;;;;11.00;100.00;100419.06;4469850;32;20092;-68
2022/05/04 05:03:29;;;;;;;16.40;10.95;;;;;;;11.14;99.08;100421.53;4469861;32;20092;-68
2022/05/04 05:05:56;;;;;;;15.38;10.80;;;;;;;11.36;98.47;100427.34;4469391;32;20365;-68
2022/05/04 05:08:24;;;;;;;13.50;10.40;;;;;;;11.52;96.36;100425.34;4454248;32;20168;-68
2022/05/04 05:10:51;;;;;;;29.05;11.63;;;;;;;11.61;95.04;100430.50;4468578;32;20100;-67
2022/05/04 05:13:18;;;;;;;15.45;10.90;;;;;;;11.80;94.94;100431.97;4467985;32;20208;-66
2022/05/04 05:18:31;;;;;;;16.10;11.20;;;;;;;12.20;92.80;100436.59;4469090;32;20473;-66
2022/05/04 05:20:59;;;;;;;15.27;10.43;;;;;;;12.43;92.37;100433.53;4469007;32;20168;-67
2022/05/04 05:23:28;;;;;;;20.15;10.93;;;;;;;12.80;89.93;100436.34;4469332;32;20155;-66
2022/05/04 05:25:55;;;;;;;13.50;10.60;;;;;;;13.14;89.29;100433.87;4469313;32;20096;-67
2022/05/04 05:28:22;;;;;;;17.00;11.15;;;;;;;13.47;87.02;100436.69;4469376;32;20139;-66
2022/05/04 05:30:49;;;;;;;17.58;11.25;;;;;;;13.68;86.05;100437.97;4469399;32;20102;-67
2022/05/04 05:33:16;;;;;;;17.00;12.10;;;;;;;13.85;85.20;100434.91;4469406;32;20092;-67
2022/05/04 05:35:44;;;;;;;28.02;13.38;;;;;;;13.87;84.41;100439.25;4469148;32;20550;-67
2022/05/04 05:38:11;;;;;;;22.37;13.30;;;;;;;13.88;85.69;100435.69;4468998;32;20092;-67
2022/05/04 05:40:38;;;;;;;20.73;12.88;;;;;;;14.07;83.85;100433.47;4469133;32;20508;-66
2022/05/04 05:43:05;;;;;;;18.15;12.45;;;;;;;14.13;81.91;100432.44;4467744;32;20127;-66
2022/05/04 05:45:33;;;;;;;17.45;11.43;;;;;;;14.27;80.92;100434.72;4437285;32;20161;-67
2022/05/04 05:48:00;;;;;;;16.25;10.40;;;;;;;14.38;80.60;100431.78;4461527;32;20581;-67
2022/05/04 05:50:28;;;;;;;17.25;11.25;;;;;;;14.62;78.52;100431.16;4466942;32;20100;-67
2022/05/04 05:52:55;;;;;;;18.45;11.25;;;;;;;14.76;79.05;100433.44;4456370;32;20438;-67
2022/05/04 05:55:22;;;;;;;17.77;10.85;;;;;;;15.01;77.67;100434.44;4452620;32;20093;-66
2022/05/04 05:57:49;;;;;;;17.17;11.55;;;;;;;15.02;77.12;100440.66;4453165;32;20160;-67
2022/05/04 06:00:17;;;;;;;19.67;10.85;;;;;;;15.26;77.02;100439.03;4453023;32;20147;-66
2022/05/04 06:02:47;;;;;;;14.50;11.57;;;;;;;15.54;76.31;100439.06;4453203;32;20184;-67
2022/05/04 06:05:14;;;;;;;16.58;12.88;;;;;;;15.69;75.24;100440.41;4466278;32;20088;-66
2022/05/04 06:07:41;;;;;;;17.42;10.70;;;;;;;15.80;74.58;100442.72;4468605;32;20093;-66
2022/05/04 06:10:09;;;;;;;21.95;11.05;;;;;;;16.04;73.56;100443.69;4468898;32;20112;-66
2022/05/04 06:12:38;;;;;;;16.92;12.05;;;;;;;16.40;73.48;100446.91;4467725;32;20478;-66
2022/05/04 06:15:07;;;;;;;17.52;11.57;;;;;;;16.42;72.72;100447.69;4453037;32;20191;-67
2022/05/04 06:17:35;;;;;;;14.75;11.93;;;;;;;16.69;71.95;100449.38;4452954;32;20480;-66
2022/05/04 06:20:04;;;;;;;22.35;11.98;;;;;;;16.81;72.08;100455.22;4454230;32;20096;-67
2022/05/04 06:22:31;;;;;;;16.42;10.75;;;;;;;17.01;70.69;100460.66;4455138;32;20088;-67
2022/05/04 06:24:59;;;;;;;23.00;10.88;;;;;;;17.23;69.45;100460.72;4454511;32;20152;-68
2022/05/04 06:27:29;;;;;;;20.10;11.20;;;;;;;17.44;68.43;100464.34;4455102;32;20477;-67
2022/05/04 06:35:27;;;;;;;26.35;10.82;;;;;;;17.82;67.22;100465.53;4454749;32;20076;-67
2022/05/04 06:37:54;;;;;;;15.70;10.25;;;;;;;18.03;65.63;100462.94;4455210;32;20144;-68
2022/05/04 06:40:21;;;;;;;14.70;10.55;;;;;;;18.16;65.01;100458.81;4458116;32;20169;-68
2022/05/04 06:42:48;;;;;;;20.30;12.07;;;;;;;18.28;64.82;100457.44;4454919;32;20400;-68
2022/05/04 06:45:16;;;;;;;17.27;10.05;;;;;;;18.05;64.98;100458.38;4454920;32;20154;-67
2022/05/04 06:47:43;;;;;;;13.07;10.00;;;;;;;18.33;64.29;100458.09;4455435;32;20089;-68
2022/05/04 06:50:11;;;;;;;16.37;10.40;;;;;;;18.40;63.48;100456.91;4455209;32;20481;-68
2022/05/04 06:52:39;;;;;;;17.60;11.23;;;;;;;18.12;64.25;100454.53;4454912;32;20088;-68
2022/05/04 06:55:07;;;;;;;20.20;11.23;;;;;;;18.14;64.64;100464.22;4454791;32;20084;-68
2022/05/04 06:57:36;;;;;;;20.75;11.32;;;;;;;18.25;65.25;100453.09;4454636;32;20097;-68
2022/05/04 07:00:07;;;;;;;21.52;11.10;;;;;;;18.38;64.33;100453.44;4455176;32;20480;-68
2022/05/04 07:02:34;;;;;;;20.27;10.77;;;;;;;18.06;64.14;100463.69;4454855;32;20504;-68
2022/05/04 07:05:03;;;;;;;14.55;11.00;;;;;;;17.98;64.72;100455.09;4455421;32;20100;-68
2022/05/04 07:07:31;;;;;;;17.40;11.63;;;;;;;18.09;64.70;100452.88;4454162;32;20108;-68
2022/05/04 07:09:59;;;;;;;21.00;11.00;;;;;;;18.09;64.31;100452.00;4455673;32;20119;-68
2022/05/04 07:12:26;;;;;;;32.25;11.57;;;;;;;18.18;63.93;100461.41;4455560;32;20076;-68
2022/05/04 07:14:56;;;;;;;17.75;11.60;;;;;;;18.37;64.55;100457.03;4455818;32;20160;-68
2022/05/04 07:17:23;;;;;;;19.80;10.65;;;;;;;18.59;63.77;100448.97;4455687;32;20668;-67
2022/05/04 07:19:52;;;;;;;20.50;10.07;;;;;;;18.53;64.18;100451.91;4455423;32;20787;-67
2022/05/04 07:22:21;;;;;;;31.42;10.00;;;;;;;18.70;63.67;100454.72;4455576;32;20144;-67
2022/05/04 07:24:48;;;;;;;12.32;9.40;;;;;;;18.82;62.03;100464.84;4455228;32;20167;-67
2022/05/04 07:27:16;;;;;;;12.43;7.97;;;;;;;19.00;61.28;100460.50;4455375;32;20165;-67
2022/05/04 07:29:44;;;;;;;13.30;9.90;;;;;;;19.23;60.18;100467.47;4461091;32;20811;-68
2022/05/04 07:32:12;;;;;;;25.55;9.00;;;;;;;19.49;59.41;100462.69;4470159;32;20096;-67
2022/05/04 07:34:40;;;;;;;18.75;10.00;;;;;;;19.73;58.55;100458.88;4470895;32;20500;-67
2022/05/04 07:37:08;;;;;;;12.65;8.00;;;;;;;19.81;58.30;100462.03;4470707;32;20101;-67
2022/05/04 07:42:25;;;;;;;18.15;9.00;;;;;;;20.50;57.40;100466.63;4454734;32;20533;-67
2022/05/04 07:45:00;;;;;;;17.52;8.63;;;;;;;20.63;56.32;100466.84;4454170;32;20751;-68
2022/05/04 07:47:30;;;;;;;17.95;6.90;;;;;;;20.94;53.96;100467.91;4452967;32;20135;-67
2022/05/04 07:49:58;;;;;;;20.80;8.20;;;;;;;21.30;53.77;100466.84;4453665;32;20092;-68
2022/05/04 07:52:25;;;;;;;19.58;7.40;;;;;;;21.27;52.19;100467.87;4454135;32;20096;-68
2022/05/04 07:54:53;;;;;;;9.65;5.97;;;;;;;21.43;51.21;100474.16;4453603;32;20108;-67
2022/05/04 07:57:21;;;;;;;9.75;6.75;;;;;;;21.13;51.27;100470.44;4453847;32;20158;-68
2022/05/04 08:05:26;;;;;;;22.05;6.10;;;;;;;21.28;49.18;100477.66;4454603;32;20085;-68
2022/05/04 08:07:53;;;;;;;22.33;5.07;;;;;;;21.52;49.30;100488.00;4454540;32;20104;-68
2022/05/04 08:10:20;;;;;;;11.05;4.68;;;;;;;22.00;49.33;100483.50;4454601;32;20127;-68
2022/05/04 08:12:48;;;;;;;23.58;6.45;;;;;;;22.29;47.79;100476.47;4454847;32;20123;-68
2022/05/04 08:15:15;;;;;;;14.45;5.25;;;;;;;22.60;48.17;100475.50;4455430;32;20150;-68
2022/05/04 08:17:42;;;;;;;20.60;5.53;;;;;;;22.72;45.07;100469.41;4457127;32;20108;-68
2022/05/04 08:20:11;;;;;;;22.75;4.80;;;;;;;22.49;46.37;100470.78;4460908;32;20828;-68
2022/05/04 08:22:38;;;;;;;8.27;4.00;;;;;;;22.58;47.83;100469.34;4470435;32;20135;-68
2022/05/04 08:25:05;;;;;;;14.18;3.90;;;;;;;22.47;45.18;100472.69;4470742;32;20079;-68
2022/05/04 08:27:33;;;;;;;9.65;3.40;;;;;;;22.39;44.67;100473.12;4470059;32;20100;-68
2022/05/04 08:30:00;;;;;;;11.77;3.35;;;;;;;22.63;45.18;100483.38;4470586;32;20199;-69
2022/05/04 08:32:29;;;;;;;20.23;3.72;;;;;;;22.42;44.64;100474.78;4470074;32;20085;-69
2022/05/04 08:34:57;;;;;;;10.35;3.83;;;;;;;22.52;45.75;100475.97;4470222;32;20205;-69
2022/05/04 08:37:27;;;;;;;13.77;3.83;;;;;;;22.56;45.14;100477.50;4470300;32;20092;-68
2022/05/04 08:39:55;;;;;;;17.50;3.58;;;;;;;22.32;44.61;100479.81;4470182;32;20101;-67
2022/05/04 08:42:22;;;;;;;9.18;3.20;;;;;;;21.80;43.78;100482.84;4468769;32;20084;-68
2022/05/04 08:44:56;;;;;;;10.63;4.60;;;;;;;22.04;46.09;100485.91;4470154;32;20108;-67
2022/05/04 08:47:30;;;;;;;8.75;4.32;;;;;;;22.13;46.93;100482.72;4470164;32;20092;-67
2022/05/04 08:49:57;;;;;;;13.45;4.55;;;;;;;21.79;47.11;100483.78;4469214;32;20116;-67
2022/05/04 08:52:27;;;;;;;10.75;4.15;;;;;;;21.77;47.77;100488.37;4469744;32;20153;-68
2022/05/04 08:54:55;;;;;;;11.77;3.37;;;;;;;21.67;46.36;100490.72;4468328;32;20092;-67
2022/05/04 08:57:23;;;;;;;10.50;3.67;;;;;;;21.72;44.85;100495.81;4469884;32;20104;-67
2022/05/04 08:59:50;;;;;;;8.80;3.45;;;;;;;22.38;44.14;100481.28;4469814;32;20139;-67
2022/05/04 09:02:18;;;;;;;8.57;3.15;;;;;;;23.25;44.14;100492.13;4469894;32;20765;-67
2022/05/04 09:04:45;;;;;;;14.43;4.20;;;;;;;23.78;42.90;100482.47;4469819;32;20464;-68
2022/05/04 09:07:23;;;;;;;11.38;5.00;;;;;;;24.12;42.11;100487.44;4470283;32;20774;-68
2022/05/04 09:09:52;;;;;;;17.67;3.87;;;;;;;24.08;40.09;100486.78;4470364;32;20122;-68
2022/05/04 09:12:20;;;;;;;14.98;4.32;;;;;;;24.38;42.00;100481.13;4469765;32;20108;-68
2022/05/04 09:14:47;;;;;;;6.78;4.68;;;;;;;24.65;41.37;100483.81;4470097;32;20091;-68
2022/05/04 09:17:16;;;;;;;10.93;4.40;;;;;;;24.76;41.23;100483.06;4442950;32;20222;-68
2022/05/04 09:20:45;;;;;;;37.58;5.93;;;;;;;24.57;39.72;100478.09;4458119;32;20573;-69
2022/05/04 09:22:42;;;;;;;36.58;5.07;;;;;;;24.47;43.05;100482.41;4469358;32;20136;-69
2022/05/04 09:25:16;;;;;;;26.62;4.37;;;;;;;24.56;41.11;100479.94;4453822;32;20084;-68
2022/05/04 09:27:45;;;;;;;14.20;3.95;;;;;;;24.68;42.08;100480.06;4453855;32;20840;-68
2022/05/04 09:30:12;;;;;;;20.17;4.18;;;;;;;24.85;40.10;100474.37;4453702;32;20109;-68
2022/05/04 09:32:40;;;;;;;57.05;6.37;;;;;;;24.41;41.71;100483.66;4452987;32;20771;-68
2022/05/04 09:35:15;;;;;;;10.00;5.62;;;;;;;24.67;41.22;100481.03;4453331;32;20092;-69
2022/05/04 09:46:08;;;;;;;5.32;4.50;;;;;;;25.63;39.02;100481.41;4453429;32;20107;-68
2022/05/04 09:48:36;;;;;;;8.35;4.57;;;;;;;25.72;37.96;100473.50;4453612;32;20394;-68
2022/05/04 09:51:07;;;;;;;10.18;4.55;;;;;;;26.22;39.10;100470.75;4452972;32;20181;-69
2022/05/04 09:53:36;;;;;;;9.88;4.37;;;;;;;26.43;36.56;100470.91;4454019;32;20728;-68
2022/05/04 09:56:04;;;;;;;7.25;4.43;;;;;;;26.89;35.68;100472.75;4455888;32;20119;-68
2022/05/04 09:58:31;;;;;;;4.10;3.78;;;;;;;26.70;34.71;100468.81;4456329;32;20127;-68
2022/05/04 10:00:59;;;;;;;7.50;4.50;;;;;;;26.78;35.16;100461.94;4456076;32;20093;-68
2022/05/04 10:03:27;;;;;;;7.50;3.72;;;;;;;25.90;36.26;100465.03;4456157;32;20187;-68
2022/05/04 10:05:55;;;;;;;7.25;4.28;;;;;;;26.46;36.12;100452.66;4456117;32;20118;-68
2022/05/04 10:08:23;;;;;;;9.82;3.42;;;;;;;26.82;34.04;100450.78;4455943;32;20085;-68
2022/05/04 10:10:54;;;;;;;6.05;4.28;;;;;;;26.46;35.50;100443.66;4455514;32;20268;-68
2022/05/04 10:13:22;;;;;;;8.65;3.72;;;;;;;26.10;36.28;100445.50;4462518;32;20096;-68
2022/05/04 10:15:53;;;;;;;6.03;4.35;;;;;;;26.61;35.11;100439.81;4464630;32;20084;-68
2022/05/04 10:18:26;;;;;;;7.85;3.50;;;;;;;26.61;34.23;100436.25;4470819;32;20229;-68
2022/05/04 10:21:05;;;;;;;6.22;3.20;;;;;;;26.69;33.01;100433.81;4471675;32;20139;-68
2022/05/04 10:23:40;;;;;;;4.07;2.50;;;;;;;26.36;33.71;100430.03;4471680;32;20129;-68
2022/05/04 10:26:07;;;;;;;7.90;3.25;;;;;;;26.31;34.57;100424.09;4471606;32;20148;-68
2022/05/04 10:28:37;;;;;;;6.90;2.85;;;;;;;25.29;34.05;100427.22;4457048;32;20126;-68
2022/05/04 10:31:11;;;;;;;6.18;2.83;;;;;;;25.17;35.69;100433.50;4457182;32;20108;-68
2022/05/04 10:33:43;;;;;;;5.30;2.60;;;;;;;25.17;36.52;100426.28;4471459;32;20480;-68
2022/05/04 10:36:31;;;;;;;7.10;2.35;;;;;;;25.05;36.06;100429.81;4471240;32;20118;-68
2022/05/04 10:39:02;;;;;;;10.30;3.35;;;;;;;24.89;36.72;100424.66;4471419;32;20092;-68
2022/05/04 10:41:37;;;;;;;5.65;2.87;;;;;;;24.59;42.82;100427.66;4445326;32;20229;-68
2022/05/04 10:44:09;;;;;;;6.60;3.80;;;;;;;24.62;43.26;100430.16;4462096;32;20172;-67
2022/05/04 10:46:41;;;;;;;7.45;3.55;;;;;;;24.39;47.80;100423.63;4462085;32;20171;-67
2022/05/04 10:49:13;;;;;;;8.77;2.97;;;;;;;24.28;48.38;100427.06;4455100;32;20090;-68
2022/05/04 10:51:42;;;;;;;6.40;2.97;;;;;;;24.12;47.25;100420.13;4455660;32;20114;-68
2022/05/04 10:54:21;;;;;;;4.28;3.03;;;;;;;23.70;45.44;100427.41;4455695;32;20110;-68
2022/05/04 10:56:54;;;;;;;3.62;2.62;;;;;;;23.34;48.62;100424.28;4454323;32;20088;-68
2022/05/04 10:59:30;;;;;;;7.30;3.25;;;;;;;22.73;50.05;100417.41;4454365;32;20113;-68
2022/05/04 11:02:06;;;;;;;3.17;2.87;;;;;;;22.55;49.64;100422.06;4455617;32;20802;-68
2022/05/04 11:04:34;;;;;;;10.57;3.37;;;;;;;22.26;49.97;100413.13;4454720;32;20085;-69
2022/05/04 11:07:03;;;;;;;9.82;3.90;;;;;;;22.14;52.62;100413.78;4454570;32;20678;-68
2022/05/04 11:09:39;;;;;;;7.28;3.58;;;;;;;21.79;55.99;100419.41;4452927;32;20084;-68
2022/05/04 11:12:10;;;;;;;5.25;4.20;;;;;;;21.60;57.85;100419.59;4453133;32;20130;-68
2022/05/04 11:14:38;;;;;;;5.82;4.00;;;;;;;21.28;60.09;100413.34;4453815;32;20088;-68
2022/05/04 11:17:10;;;;;;;11.43;3.87;;;;;;;21.14;59.90;100421.28;4452023;32;20096;-68
2022/05/04 11:19:43;;;;;;;9.23;3.40;;;;;;;20.80;57.95;100423.13;4453178;32;20197;-68
2022/05/04 11:22:12;;;;;;;8.77;3.40;;;;;;;20.67;55.04;100416.69;4454720;32;20172;-68
2022/05/04 11:24:59;;;;;;;12.98;3.00;;;;;;;20.32;54.08;100414.03;4458443;32;20198;-68
2022/05/04 11:27:26;;;;;;;8.40;3.05;;;;;;;20.04;53.03;100417.25;4460949;32;20128;-68
2022/05/04 11:29:57;;;;;;;11.65;3.53;;;;;;;19.70;59.91;100418.91;4466088;32;20173;-68
2022/05/04 11:32:26;;;;;;;4.82;2.70;;;;;;;19.46;62.80;100420.94;4471111;32;20175;-68
2022/05/04 11:34:56;;;;;;;14.50;3.25;;;;;;;19.32;64.23;100420.72;4471061;32;20080;-68
2022/05/04 11:37:23;;;;;;;2.83;2.45;;;;;;;19.26;63.24;100418.38;4470971;32;20115;-68
2022/05/04 11:39:50;;;;;;;6.18;2.78;;;;;;;19.36;60.79;100416.97;4465317;32;20089;-68
2022/05/04 11:42:18;;;;;;;6.20;2.90;;;;;;;19.43;62.57;100406.84;4465619;32;20100;-69
2022/05/04 11:44:47;;;;;;;5.35;2.75;;;;;;;19.58;59.81;100416.81;4453913;32;20142;-69
2022/05/04 11:47:15;;;;;;;5.05;2.72;;;;;;;19.82;59.99;100414.75;4439293;32;20508;-68
2022/05/04 11:49:42;;;;;;;2.67;2.50;;;;;;;19.97;59.81;100416.69;4453855;32;20115;-68
2022/05/04 11:52:10;;;;;;;3.35;3.05;;;;;;;20.26;58.35;100419.69;4454071;32;20134;-69
2022/05/04 11:54:38;;;;;;;4.07;2.87;;;;;;;20.32;56.37;100415.81;4453793;32;20567;-68
2022/05/04 11:57:12;;;;;;;3.12;2.10;;;;;;;20.38;55.17;100431.56;4462818;32;20092;-69
2022/05/04 11:59:40;;;;;;;5.22;3.08;;;;;;;20.44;57.28;100416.06;4464873;32;20092;-68